sensor_id;sensor_type;location;lat;lon;timestamp;P1;durP1;ratioP1;P2;durP2;ratioP2
23099;SDS011;53791;50.696;4.396;2022-09-09T00:03:54;3.98;;;3.67;;
23099;SDS011;53791;50.696;4.396;2022-09-09T00:06:44;3.85;;;3.55;;
23099;SDS011;53791;50.696;4.396;2022-09-09T00:09:17;3.87;;;3.58;;
23099;SDS011;53791;50.696;4.396;2022-09-09T00:11:58;4.20;;;3.90;;
23099;SDS011;53791;50.696;4.396;2022-09-09T00:14:23;4.10;;;3.80;;
23099;SDS011;53791;50.696;4.396;2022-09-09T00:17:08;4.30;;;4.00;;
23099;SDS011;53791;50.696;4.396;2022-09-09T00:19:53;3.62;;;3.33;;
23099;SDS011;53791;50.696;4.396;2022-09-09T00:22:23;4.40;;;4.10;;
23099;SDS011;53791;50.696;4.396;2022-09-09T00:24:53;4.50;;;4.10;;
23099;SDS011;53791;50.696;4.396;2022-09-09T00:27:36;3.85;;;3.55;;
23099;SDS011;53791;50.696;4.396;2022-09-09T00:30:17;4.03;;;3.72;;
23099;SDS011;53791;50.696;4.396;2022-09-09T00:32:46;4.08;;;3.77;;
23099;SDS011;53791;50.696;4.396;2022-09-09T00:37:52;4.20;;;3.90;;
23099;SDS011;53791;50.696;4.396;2022-09-09T00:40:32;4.58;;;4.17;;
23099;SDS011;53791;50.696;4.396;2022-09-09T00:43:01;4.20;;;3.90;;
23099;SDS011;53791;50.696;4.396;2022-09-09T00:45:39;4.10;;;3.80;;
23099;SDS011;53791;50.696;4.396;2022-09-09T00:48:15;4.12;;;3.83;;
23099;SDS011;53791;50.696;4.396;2022-09-09T00:50:53;5.42;;;4.33;;
23099;SDS011;53791;50.696;4.396;2022-09-09T00:56:20;4.10;;;3.80;;
23099;SDS011;53791;50.696;4.396;2022-09-09T00:58:59;4.10;;;3.80;;
23099;SDS011;53791;50.696;4.396;2022-09-09T01:01:38;7.30;;;4.45;;
23099;SDS011;53791;50.696;4.396;2022-09-09T01:04:10;5.55;;;4.15;;
23099;SDS011;53791;50.696;4.396;2022-09-09T01:06:42;4.47;;;4.08;;
23099;SDS011;53791;50.696;4.396;2022-09-09T01:11:51;4.00;;;3.70;;
23099;SDS011;53791;50.696;4.396;2022-09-09T01:14:40;3.87;;;3.58;;
23099;SDS011;53791;50.696;4.396;2022-09-09T01:17:09;4.10;;;3.75;;
23099;SDS011;53791;50.696;4.396;2022-09-09T01:19:51;4.40;;;3.98;;
23099;SDS011;53791;50.696;4.396;2022-09-09T01:22:33;4.30;;;3.90;;
23099;SDS011;53791;50.696;4.396;2022-09-09T01:25:21;3.75;;;3.45;;
23099;SDS011;53791;50.696;4.396;2022-09-09T01:28:08;3.90;;;3.60;;
23099;SDS011;53791;50.696;4.396;2022-09-09T01:30:38;3.80;;;3.50;;
23099;SDS011;53791;50.696;4.396;2022-09-09T01:33:10;3.87;;;3.58;;
23099;SDS011;53791;50.696;4.396;2022-09-09T01:38:17;4.55;;;4.15;;
23099;SDS011;53791;50.696;4.396;2022-09-09T01:40:45;3.72;;;3.42;;
23099;SDS011;53791;50.696;4.396;2022-09-09T01:43:13;3.75;;;3.45;;
23099;SDS011;53791;50.696;4.396;2022-09-09T01:45:40;3.75;;;3.45;;
23099;SDS011;53791;50.696;4.396;2022-09-09T01:48:10;6.08;;;4.03;;
23099;SDS011;53791;50.696;4.396;2022-09-09T01:50:38;3.80;;;3.50;;
23099;SDS011;53791;50.696;4.396;2022-09-09T01:53:05;3.60;;;3.30;;
23099;SDS011;53791;50.696;4.396;2022-09-09T01:55:37;3.60;;;3.30;;
23099;SDS011;53791;50.696;4.396;2022-09-09T01:58:22;3.90;;;3.60;;
23099;SDS011;53791;50.696;4.396;2022-09-09T02:01:21;7.53;;;3.80;;
23099;SDS011;53791;50.696;4.396;2022-09-09T02:04:05;5.37;;;3.80;;
23099;SDS011;53791;50.696;4.396;2022-09-09T02:06:35;4.87;;;3.90;;
23099;SDS011;53791;50.696;4.396;2022-09-09T02:09:05;3.60;;;3.30;;
23099;SDS011;53791;50.696;4.396;2022-09-09T02:11:34;3.58;;;3.27;;
23099;SDS011;53791;50.696;4.396;2022-09-09T02:14:05;5.00;;;3.47;;
23099;SDS011;53791;50.696;4.396;2022-09-09T02:16:40;3.90;;;3.50;;
23099;SDS011;53791;50.696;4.396;2022-09-09T02:19:11;3.52;;;3.22;;
23099;SDS011;53791;50.696;4.396;2022-09-09T02:21:41;3.70;;;3.40;;
23099;SDS011;53791;50.696;4.396;2022-09-09T02:24:11;4.60;;;3.60;;
23099;SDS011;53791;50.696;4.396;2022-09-09T02:26:42;3.80;;;3.50;;
23099;SDS011;53791;50.696;4.396;2022-09-09T02:29:14;3.60;;;3.30;;
23099;SDS011;53791;50.696;4.396;2022-09-09T02:31:43;3.98;;;3.67;;
23099;SDS011;53791;50.696;4.396;2022-09-09T02:34:13;4.00;;;3.40;;
23099;SDS011;53791;50.696;4.396;2022-09-09T02:36:41;4.45;;;3.70;;
23099;SDS011;53791;50.696;4.396;2022-09-09T02:39:11;3.60;;;3.30;;
23099;SDS011;53791;50.696;4.396;2022-09-09T02:41:40;5.15;;;4.03;;
23099;SDS011;53791;50.696;4.396;2022-09-09T02:44:13;4.00;;;3.70;;
23099;SDS011;53791;50.696;4.396;2022-09-09T02:49:38;3.80;;;3.50;;
23099;SDS011;53791;50.696;4.396;2022-09-09T02:52:07;4.10;;;3.80;;
23099;SDS011;53791;50.696;4.396;2022-09-09T02:54:39;3.62;;;3.33;;
23099;SDS011;53791;50.696;4.396;2022-09-09T02:57:14;4.30;;;3.75;;
23099;SDS011;53791;50.696;4.396;2022-09-09T02:59:46;3.62;;;3.33;;
23099;SDS011;53791;50.696;4.396;2022-09-09T03:02:14;4.10;;;3.77;;
23099;SDS011;53791;50.696;4.396;2022-09-09T03:04:42;4.30;;;4.00;;
23099;SDS011;53791;50.696;4.396;2022-09-09T03:07:10;4.00;;;3.70;;
23099;SDS011;53791;50.696;4.396;2022-09-09T03:09:38;4.50;;;4.10;;
23099;SDS011;53791;50.696;4.396;2022-09-09T03:12:06;4.10;;;3.80;;
23099;SDS011;53791;50.696;4.396;2022-09-09T03:14:33;4.15;;;3.85;;
23099;SDS011;53791;50.696;4.396;2022-09-09T03:17:01;4.60;;;4.20;;
23099;SDS011;53791;50.696;4.396;2022-09-09T03:19:28;4.75;;;4.35;;
23099;SDS011;53791;50.696;4.396;2022-09-09T03:21:57;5.00;;;4.58;;
23099;SDS011;53791;50.696;4.396;2022-09-09T03:24:25;4.95;;;4.55;;
23099;SDS011;53791;50.696;4.396;2022-09-09T03:26:52;4.65;;;4.25;;
23099;SDS011;53791;50.696;4.396;2022-09-09T03:29:21;4.25;;;3.95;;
23099;SDS011;53791;50.696;4.396;2022-09-09T03:31:48;4.20;;;3.90;;
23099;SDS011;53791;50.696;4.396;2022-09-09T03:34:16;4.33;;;4.00;;
23099;SDS011;53791;50.696;4.396;2022-09-09T03:36:44;4.10;;;3.80;;
23099;SDS011;53791;50.696;4.396;2022-09-09T03:39:13;8.28;;;4.78;;
23099;SDS011;53791;50.696;4.396;2022-09-09T03:41:41;4.85;;;4.42;;
23099;SDS011;53791;50.696;4.396;2022-09-09T03:44:10;10.05;;;4.62;;
23099;SDS011;53791;50.696;4.396;2022-09-09T03:46:38;5.05;;;4.42;;
23099;SDS011;53791;50.696;4.396;2022-09-09T03:49:05;8.63;;;4.67;;
23099;SDS011;53791;50.696;4.396;2022-09-09T03:51:33;4.70;;;4.30;;
23099;SDS011;53791;50.696;4.396;2022-09-09T03:54:02;5.10;;;4.60;;
23099;SDS011;53791;50.696;4.396;2022-09-09T03:56:30;5.05;;;4.20;;
23099;SDS011;53791;50.696;4.396;2022-09-09T03:58:58;4.85;;;4.40;;
23099;SDS011;53791;50.696;4.396;2022-09-09T04:01:26;17.48;;;4.90;;
23099;SDS011;53791;50.696;4.396;2022-09-09T04:03:54;4.58;;;4.22;;
23099;SDS011;53791;50.696;4.396;2022-09-09T04:06:23;4.40;;;4.10;;
23099;SDS011;53791;50.696;4.396;2022-09-09T04:08:51;4.50;;;4.10;;
23099;SDS011;53791;50.696;4.396;2022-09-09T04:11:19;5.67;;;4.65;;
23099;SDS011;53791;50.696;4.396;2022-09-09T04:13:47;5.03;;;4.55;;
23099;SDS011;53791;50.696;4.396;2022-09-09T04:16:15;4.90;;;4.50;;
23099;SDS011;53791;50.696;4.396;2022-09-09T04:18:42;4.67;;;4.35;;
23099;SDS011;53791;50.696;4.396;2022-09-09T04:21:10;6.40;;;5.25;;
23099;SDS011;53791;50.696;4.396;2022-09-09T04:23:38;4.90;;;4.55;;
23099;SDS011;53791;50.696;4.396;2022-09-09T04:26:06;4.35;;;4.05;;
23099;SDS011;53791;50.696;4.396;2022-09-09T04:28:35;5.37;;;4.87;;
23099;SDS011;53791;50.696;4.396;2022-09-09T04:31:07;4.85;;;4.45;;
23099;SDS011;53791;50.696;4.396;2022-09-09T04:33:37;5.37;;;4.80;;
23099;SDS011;53791;50.696;4.396;2022-09-09T04:36:05;9.83;;;4.80;;
23099;SDS011;53791;50.696;4.396;2022-09-09T04:38:33;5.37;;;4.87;;
23099;SDS011;53791;50.696;4.396;2022-09-09T04:41:01;4.90;;;4.50;;
23099;SDS011;53791;50.696;4.396;2022-09-09T04:43:28;5.00;;;4.53;;
23099;SDS011;53791;50.696;4.396;2022-09-09T04:45:56;4.40;;;4.10;;
23099;SDS011;53791;50.696;4.396;2022-09-09T04:48:26;10.32;;;4.95;;
23099;SDS011;53791;50.696;4.396;2022-09-09T04:51:00;4.92;;;4.53;;
23099;SDS011;53791;50.696;4.396;2022-09-09T04:53:30;5.00;;;4.60;;
23099;SDS011;53791;50.696;4.396;2022-09-09T04:56:03;4.78;;;4.42;;
23099;SDS011;53791;50.696;4.396;2022-09-09T04:58:32;5.10;;;4.70;;
23099;SDS011;53791;50.696;4.396;2022-09-09T05:01:04;5.00;;;4.60;;
23099;SDS011;53791;50.696;4.396;2022-09-09T05:03:35;4.80;;;4.40;;
23099;SDS011;53791;50.696;4.396;2022-09-09T05:06:08;5.15;;;4.75;;
23099;SDS011;53791;50.696;4.396;2022-09-09T05:08:37;4.92;;;4.42;;
23099;SDS011;53791;50.696;4.396;2022-09-09T05:11:21;6.53;;;5.35;;
23099;SDS011;53791;50.696;4.396;2022-09-09T05:13:50;5.20;;;4.80;;
23099;SDS011;53791;50.696;4.396;2022-09-09T05:16:19;5.50;;;5.00;;
23099;SDS011;53791;50.696;4.396;2022-09-09T05:18:48;6.65;;;4.80;;
23099;SDS011;53791;50.696;4.396;2022-09-09T05:21:17;5.83;;;5.33;;
23099;SDS011;53791;50.696;4.396;2022-09-09T05:23:46;5.65;;;5.17;;
23099;SDS011;53791;50.696;4.396;2022-09-09T05:26:14;6.20;;;5.70;;
23099;SDS011;53791;50.696;4.396;2022-09-09T05:28:43;5.37;;;4.97;;
23099;SDS011;53791;50.696;4.396;2022-09-09T05:31:12;6.78;;;5.45;;
23099;SDS011;53791;50.696;4.396;2022-09-09T05:33:42;5.22;;;4.83;;
23099;SDS011;53791;50.696;4.396;2022-09-09T05:36:15;5.62;;;5.05;;
23099;SDS011;53791;50.696;4.396;2022-09-09T05:38:44;5.35;;;4.85;;
23099;SDS011;53791;50.696;4.396;2022-09-09T05:41:12;5.47;;;5.08;;
23099;SDS011;53791;50.696;4.396;2022-09-09T05:43:45;9.63;;;5.83;;
23099;SDS011;53791;50.696;4.396;2022-09-09T05:46:15;5.40;;;5.00;;
23099;SDS011;53791;50.696;4.396;2022-09-09T05:48:45;5.12;;;4.72;;
23099;SDS011;53791;50.696;4.396;2022-09-09T05:51:15;5.20;;;4.80;;
23099;SDS011;53791;50.696;4.396;2022-09-09T05:53:44;5.20;;;4.70;;
23099;SDS011;53791;50.696;4.396;2022-09-09T05:56:17;4.55;;;4.25;;
23099;SDS011;53791;50.696;4.396;2022-09-09T05:58:44;5.22;;;4.83;;
23099;SDS011;53791;50.696;4.396;2022-09-09T06:01:19;12.80;;;5.37;;
23099;SDS011;53791;50.696;4.396;2022-09-09T06:03:49;7.20;;;5.75;;
23099;SDS011;53791;50.696;4.396;2022-09-09T06:06:19;5.30;;;4.90;;
23099;SDS011;53791;50.696;4.396;2022-09-09T06:08:48;5.33;;;4.92;;
23099;SDS011;53791;50.696;4.396;2022-09-09T06:11:24;6.37;;;5.55;;
23099;SDS011;53791;50.696;4.396;2022-09-09T06:13:49;5.83;;;5.33;;
23099;SDS011;53791;50.696;4.396;2022-09-09T06:16:21;5.78;;;5.28;;
23099;SDS011;53791;50.696;4.396;2022-09-09T06:18:50;5.42;;;5.03;;
23099;SDS011;53791;50.696;4.396;2022-09-09T06:21:19;5.78;;;5.28;;
23099;SDS011;53791;50.696;4.396;2022-09-09T06:23:49;5.40;;;5.00;;
23099;SDS011;53791;50.696;4.396;2022-09-09T06:26:21;5.90;;;5.47;;
23099;SDS011;53791;50.696;4.396;2022-09-09T06:28:54;5.30;;;4.90;;
23099;SDS011;53791;50.696;4.396;2022-09-09T06:31:23;5.78;;;5.28;;
23099;SDS011;53791;50.696;4.396;2022-09-09T06:33:54;10.93;;;6.03;;
23099;SDS011;53791;50.696;4.396;2022-09-09T06:36:24;8.33;;;5.20;;
23099;SDS011;53791;50.696;4.396;2022-09-09T06:38:56;5.30;;;4.90;;
23099;SDS011;53791;50.696;4.396;2022-09-09T06:41:25;5.30;;;4.90;;
23099;SDS011;53791;50.696;4.396;2022-09-09T06:43:54;5.47;;;5.08;;
23099;SDS011;53791;50.696;4.396;2022-09-09T06:46:22;5.45;;;5.05;;
23099;SDS011;53791;50.696;4.396;2022-09-09T06:48:53;5.20;;;4.80;;
23099;SDS011;53791;50.696;4.396;2022-09-09T06:51:22;5.95;;;5.47;;
23099;SDS011;53791;50.696;4.396;2022-09-09T06:53:52;5.58;;;5.17;;
23099;SDS011;53791;50.696;4.396;2022-09-09T06:56:23;6.25;;;5.75;;
23099;SDS011;53791;50.696;4.396;2022-09-09T06:58:53;6.30;;;5.10;;
23099;SDS011;53791;50.696;4.396;2022-09-09T07:01:25;5.58;;;5.17;;
23099;SDS011;53791;50.696;4.396;2022-09-09T07:03:56;6.08;;;5.58;;
23099;SDS011;53791;50.696;4.396;2022-09-09T07:06:25;6.05;;;5.65;;
23099;SDS011;53791;50.696;4.396;2022-09-09T07:08:55;5.50;;;5.10;;
23099;SDS011;53791;50.696;4.396;2022-09-09T07:11:25;5.78;;;5.37;;
23099;SDS011;53791;50.696;4.396;2022-09-09T07:13:54;5.85;;;5.35;;
23099;SDS011;53791;50.696;4.396;2022-09-09T07:16:23;5.35;;;4.95;;
23099;SDS011;53791;50.696;4.396;2022-09-09T07:18:53;7.33;;;5.50;;
23099;SDS011;53791;50.696;4.396;2022-09-09T07:21:24;6.00;;;5.60;;
23099;SDS011;53791;50.696;4.396;2022-09-09T07:23:53;6.03;;;5.62;;
23099;SDS011;53791;50.696;4.396;2022-09-09T07:26:22;6.67;;;6.12;;
23099;SDS011;53791;50.696;4.396;2022-09-09T07:28:51;6.25;;;5.75;;
23099;SDS011;53791;50.696;4.396;2022-09-09T07:31:20;5.53;;;5.12;;
23099;SDS011;53791;50.696;4.396;2022-09-09T07:33:50;5.97;;;5.58;;
23099;SDS011;53791;50.696;4.396;2022-09-09T07:36:22;5.90;;;5.50;;
23099;SDS011;53791;50.696;4.396;2022-09-09T07:38:50;6.22;;;5.70;;
23099;SDS011;53791;50.696;4.396;2022-09-09T07:41:35;5.85;;;5.45;;
23099;SDS011;53791;50.696;4.396;2022-09-09T07:44:06;6.15;;;5.65;;
23099;SDS011;53791;50.696;4.396;2022-09-09T07:46:38;6.50;;;5.90;;
23099;SDS011;53791;50.696;4.396;2022-09-09T07:49:06;6.47;;;5.72;;
23099;SDS011;53791;50.696;4.396;2022-09-09T07:51:36;5.78;;;5.37;;
23099;SDS011;53791;50.696;4.396;2022-09-09T07:54:05;6.55;;;5.75;;
23099;SDS011;53791;50.696;4.396;2022-09-09T07:56:35;5.70;;;5.30;;
23099;SDS011;53791;50.696;4.396;2022-09-09T07:59:03;5.70;;;5.30;;
23099;SDS011;53791;50.696;4.396;2022-09-09T08:01:35;5.75;;;5.28;;
23099;SDS011;53791;50.696;4.396;2022-09-09T08:04:06;5.85;;;5.40;;
23099;SDS011;53791;50.696;4.396;2022-09-09T08:06:40;5.65;;;5.25;;
23099;SDS011;53791;50.696;4.396;2022-09-09T08:09:05;6.67;;;5.95;;
23099;SDS011;53791;50.696;4.396;2022-09-09T08:11:34;6.25;;;5.65;;
23099;SDS011;53791;50.696;4.396;2022-09-09T08:14:02;5.70;;;5.30;;
23099;SDS011;53791;50.696;4.396;2022-09-09T08:16:36;5.75;;;5.25;;
23099;SDS011;53791;50.696;4.396;2022-09-09T08:19:02;6.42;;;5.05;;
23099;SDS011;53791;50.696;4.396;2022-09-09T08:21:33;11.28;;;5.15;;
23099;SDS011;53791;50.696;4.396;2022-09-09T08:24:02;6.05;;;5.55;;
23099;SDS011;53791;50.696;4.396;2022-09-09T08:26:32;6.20;;;5.60;;
23099;SDS011;53791;50.696;4.396;2022-09-09T08:29:01;7.10;;;5.67;;
23099;SDS011;53791;50.696;4.396;2022-09-09T08:31:36;5.67;;;5.28;;
23099;SDS011;53791;50.696;4.396;2022-09-09T08:34:05;5.58;;;5.17;;
23099;SDS011;53791;50.696;4.396;2022-09-09T08:36:37;5.92;;;5.53;;
23099;SDS011;53791;50.696;4.396;2022-09-09T08:39:06;6.45;;;5.95;;
23099;SDS011;53791;50.696;4.396;2022-09-09T08:44:39;7.20;;;6.50;;
23099;SDS011;53791;50.696;4.396;2022-09-09T08:52:59;6.65;;;6.15;;
23099;SDS011;53791;50.696;4.396;2022-09-09T08:55:34;6.78;;;6.28;;
23099;SDS011;53791;50.696;4.396;2022-09-09T08:58:08;7.75;;;6.85;;
23099;SDS011;53791;50.696;4.396;2022-09-09T09:00:35;6.05;;;5.65;;
23099;SDS011;53791;50.696;4.396;2022-09-09T09:05:58;8.55;;;7.95;;
23099;SDS011;53791;50.696;4.396;2022-09-09T09:11:15;7.78;;;7.28;;
23099;SDS011;53791;50.696;4.396;2022-09-09T09:13:47;9.20;;;8.40;;
23099;SDS011;53791;50.696;4.396;2022-09-09T09:16:19;7.95;;;7.37;;
23099;SDS011;53791;50.696;4.396;2022-09-09T09:18:47;8.58;;;7.87;;
23099;SDS011;53791;50.696;4.396;2022-09-09T09:21:26;8.00;;;7.50;;
23099;SDS011;53791;50.696;4.396;2022-09-09T09:26:25;9.00;;;8.25;;
23099;SDS011;53791;50.696;4.396;2022-09-09T09:28:58;8.85;;;8.15;;
23099;SDS011;53791;50.696;4.396;2022-09-09T09:31:28;8.58;;;7.97;;
23099;SDS011;53791;50.696;4.396;2022-09-09T09:33:57;8.63;;;7.90;;
23099;SDS011;53791;50.696;4.396;2022-09-09T09:36:33;8.73;;;8.03;;
23099;SDS011;53791;50.696;4.396;2022-09-09T09:39:02;26.68;;;8.83;;
23099;SDS011;53791;50.696;4.396;2022-09-09T09:41:38;7.90;;;7.40;;
23099;SDS011;53791;50.696;4.396;2022-09-09T09:49:34;8.55;;;7.95;;
23099;SDS011;53791;50.696;4.396;2022-09-09T09:52:02;8.65;;;8.05;;
23099;SDS011;53791;50.696;4.396;2022-09-09T09:54:36;8.90;;;8.30;;
23099;SDS011;53791;50.696;4.396;2022-09-09T09:57:10;10.23;;;9.38;;
23099;SDS011;53791;50.696;4.396;2022-09-09T09:59:40;9.28;;;8.25;;
23099;SDS011;53791;50.696;4.396;2022-09-09T10:04:59;9.05;;;8.40;;
23099;SDS011;53791;50.696;4.396;2022-09-09T10:07:28;9.75;;;9.05;;
23099;SDS011;53791;50.696;4.396;2022-09-09T10:09:56;9.10;;;8.50;;
23099;SDS011;53791;50.696;4.396;2022-09-09T10:12:28;22.40;;;9.03;;
23099;SDS011;53791;50.696;4.396;2022-09-09T10:15:26;9.15;;;8.55;;
23099;SDS011;53791;50.696;4.396;2022-09-09T10:24:07;9.50;;;8.80;;
23099;SDS011;53791;50.696;4.396;2022-09-09T10:27:03;8.73;;;8.13;;
23099;SDS011;53791;50.696;4.396;2022-09-09T10:32:35;9.35;;;8.70;;
23099;SDS011;53791;50.696;4.396;2022-09-09T10:35:21;10.35;;;9.45;;
23099;SDS011;53791;50.696;4.396;2022-09-09T10:40:33;9.48;;;8.78;;
23099;SDS011;53791;50.696;4.396;2022-09-09T10:43:20;9.63;;;8.93;;
23099;SDS011;53791;50.696;4.396;2022-09-09T10:46:21;9.60;;;9.00;;
23099;SDS011;53791;50.696;4.396;2022-09-09T10:52:00;9.88;;;9.18;;
23099;SDS011;53791;50.696;4.396;2022-09-09T10:54:32;10.13;;;9.28;;
23099;SDS011;53791;50.696;4.396;2022-09-09T10:57:18;10.68;;;9.55;;
23099;SDS011;53791;50.696;4.396;2022-09-09T10:59:58;9.40;;;8.80;;
23099;SDS011;53791;50.696;4.396;2022-09-09T11:02:30;10.43;;;9.50;;
23099;SDS011;53791;50.696;4.396;2022-09-09T11:05:08;9.70;;;9.00;;
23099;SDS011;53791;50.696;4.396;2022-09-09T11:07:56;9.60;;;8.90;;
23099;SDS011;53791;50.696;4.396;2022-09-09T11:10:39;9.78;;;9.08;;
23099;SDS011;53791;50.696;4.396;2022-09-09T11:13:13;9.75;;;8.78;;
23099;SDS011;53791;50.696;4.396;2022-09-09T11:15:45;9.18;;;8.55;;
23099;SDS011;53791;50.696;4.396;2022-09-09T11:18:20;9.58;;;8.65;;
23099;SDS011;53791;50.696;4.396;2022-09-09T11:20:53;9.48;;;8.80;;
23099;SDS011;53791;50.696;4.396;2022-09-09T11:23:35;9.80;;;8.98;;
23099;SDS011;53791;50.696;4.396;2022-09-09T11:25:59;8.83;;;8.23;;
23099;SDS011;53791;50.696;4.396;2022-09-09T11:36:42;8.48;;;7.87;;
23099;SDS011;53791;50.696;4.396;2022-09-09T11:39:36;19.12;;;8.58;;
23099;SDS011;53791;50.696;4.396;2022-09-09T11:42:16;8.83;;;8.23;;
23099;SDS011;53791;50.696;4.396;2022-09-09T11:44:49;9.33;;;8.53;;
23099;SDS011;53791;50.696;4.396;2022-09-09T11:47:23;8.73;;;8.13;;
23099;SDS011;53791;50.696;4.396;2022-09-09T11:49:54;9.88;;;8.45;;
23099;SDS011;53791;50.696;4.396;2022-09-09T11:52:25;9.40;;;8.70;;
23099;SDS011;53791;50.696;4.396;2022-09-09T11:55:12;8.90;;;8.30;;
23099;SDS011;53791;50.696;4.396;2022-09-09T11:58:03;8.93;;;8.33;;
23099;SDS011;53791;50.696;4.396;2022-09-09T12:00:39;8.85;;;8.25;;
23099;SDS011;53791;50.696;4.396;2022-09-09T12:06:19;8.38;;;7.78;;
23099;SDS011;53791;50.696;4.396;2022-09-09T12:09:05;10.55;;;7.87;;
23099;SDS011;53791;50.696;4.396;2022-09-09T12:11:34;10.50;;;8.45;;
23099;SDS011;53791;50.696;4.396;2022-09-09T12:14:02;8.50;;;7.90;;
23099;SDS011;53791;50.696;4.396;2022-09-09T12:16:31;8.50;;;7.90;;
23099;SDS011;53791;50.696;4.396;2022-09-09T12:19:04;8.33;;;7.53;;
23099;SDS011;53791;50.696;4.396;2022-09-09T12:21:48;7.78;;;7.22;;
23099;SDS011;53791;50.696;4.396;2022-09-09T12:27:11;8.03;;;7.42;;
23099;SDS011;53791;50.696;4.396;2022-09-09T12:32:30;7.78;;;7.17;;
23099;SDS011;53791;50.696;4.396;2022-09-09T12:35:02;8.38;;;7.75;;
23099;SDS011;53791;50.696;4.396;2022-09-09T12:37:34;7.72;;;7.22;;
23099;SDS011;53791;50.696;4.396;2022-09-09T12:40:19;7.95;;;7.35;;
23099;SDS011;53791;50.696;4.396;2022-09-09T12:42:50;7.50;;;7.00;;
23099;SDS011;53791;50.696;4.396;2022-09-09T12:45:20;7.05;;;6.55;;
23099;SDS011;53791;50.696;4.396;2022-09-09T12:47:55;7.30;;;6.80;;
23099;SDS011;53791;50.696;4.396;2022-09-09T12:50:27;7.20;;;6.70;;
23099;SDS011;53791;50.696;4.396;2022-09-09T12:53:07;7.10;;;6.60;;
23099;SDS011;53791;50.696;4.396;2022-09-09T12:55:55;7.17;;;6.67;;
23099;SDS011;53791;50.696;4.396;2022-09-09T12:58:17;7.65;;;7.05;;
23099;SDS011;53791;50.696;4.396;2022-09-09T13:00:53;7.78;;;7.17;;
23099;SDS011;53791;50.696;4.396;2022-09-09T13:03:21;7.47;;;6.97;;
23099;SDS011;53791;50.696;4.396;2022-09-09T13:05:51;7.40;;;6.90;;
23099;SDS011;53791;50.696;4.396;2022-09-09T13:08:19;7.40;;;6.80;;
23099;SDS011;53791;50.696;4.396;2022-09-09T13:10:59;6.80;;;6.30;;
23099;SDS011;53791;50.696;4.396;2022-09-09T13:13:40;7.50;;;7.00;;
23099;SDS011;53791;50.696;4.396;2022-09-09T13:16:25;7.10;;;6.60;;
23099;SDS011;53791;50.696;4.396;2022-09-09T13:18:49;7.37;;;6.87;;
23099;SDS011;53791;50.696;4.396;2022-09-09T13:21:17;7.30;;;6.80;;
23099;SDS011;53791;50.696;4.396;2022-09-09T13:23:50;7.10;;;6.60;;
23099;SDS011;53791;50.696;4.396;2022-09-09T13:26:25;7.97;;;7.37;;
23099;SDS011;53791;50.696;4.396;2022-09-09T13:28:54;7.75;;;7.25;;
23099;SDS011;53791;50.696;4.396;2022-09-09T13:31:29;7.80;;;7.20;;
23099;SDS011;53791;50.696;4.396;2022-09-09T13:36:40;8.83;;;7.40;;
23099;SDS011;53791;50.696;4.396;2022-09-09T13:39:13;7.90;;;7.20;;
23099;SDS011;53791;50.696;4.396;2022-09-09T13:41:42;10.90;;;7.45;;
23099;SDS011;53791;50.696;4.396;2022-09-09T13:44:20;7.58;;;7.08;;
23099;SDS011;53791;50.696;4.396;2022-09-09T13:49:37;7.80;;;7.22;;
23099;SDS011;53791;50.696;4.396;2022-09-09T13:52:09;8.00;;;7.22;;
23099;SDS011;53791;50.696;4.396;2022-09-09T13:54:47;7.37;;;6.87;;
23099;SDS011;53791;50.696;4.396;2022-09-09T13:59:52;7.70;;;7.15;;
23099;SDS011;53791;50.696;4.396;2022-09-09T14:02:20;6.70;;;6.30;;
23099;SDS011;53791;50.696;4.396;2022-09-09T14:04:48;7.10;;;6.60;;
23099;SDS011;53791;50.696;4.396;2022-09-09T14:07:22;6.90;;;6.40;;
23099;SDS011;53791;50.696;4.396;2022-09-09T14:09:47;7.00;;;6.50;;
23099;SDS011;53791;50.696;4.396;2022-09-09T14:12:17;8.08;;;7.28;;
23099;SDS011;53791;50.696;4.396;2022-09-09T14:14:44;7.00;;;6.50;;
23099;SDS011;53791;50.696;4.396;2022-09-09T14:17:12;7.58;;;6.83;;
23099;SDS011;53791;50.696;4.396;2022-09-09T14:19:43;6.60;;;6.10;;
23099;SDS011;53791;50.696;4.396;2022-09-09T14:22:16;7.00;;;6.50;;
23099;SDS011;53791;50.696;4.396;2022-09-09T14:24:43;5.97;;;5.58;;
23099;SDS011;53791;50.696;4.396;2022-09-09T14:27:15;6.70;;;6.20;;
23099;SDS011;53791;50.696;4.396;2022-09-09T14:29:45;6.72;;;6.22;;
23099;SDS011;53791;50.696;4.396;2022-09-09T14:32:12;6.55;;;6.10;;
23099;SDS011;53791;50.696;4.396;2022-09-09T14:34:40;6.60;;;6.10;;
23099;SDS011;53791;50.696;4.396;2022-09-09T14:37:08;6.25;;;5.80;;
23099;SDS011;53791;50.696;4.396;2022-09-09T14:39:35;6.05;;;5.65;;
23099;SDS011;53791;50.696;4.396;2022-09-09T14:42:03;6.95;;;6.45;;
23099;SDS011;53791;50.696;4.396;2022-09-09T14:44:31;7.28;;;6.67;;
23099;SDS011;53791;50.696;4.396;2022-09-09T14:46:59;6.90;;;6.40;;
23099;SDS011;53791;50.696;4.396;2022-09-09T14:49:26;7.08;;;6.58;;
23099;SDS011;53791;50.696;4.396;2022-09-09T14:51:54;6.00;;;5.60;;
23099;SDS011;53791;50.696;4.396;2022-09-09T14:54:22;6.10;;;5.70;;
23099;SDS011;53791;50.696;4.396;2022-09-09T14:56:49;14.30;;;6.72;;
23099;SDS011;53791;50.696;4.396;2022-09-09T14:59:17;6.53;;;5.92;;
23099;SDS011;53791;50.696;4.396;2022-09-09T15:01:49;6.10;;;5.70;;
23099;SDS011;53791;50.696;4.396;2022-09-09T15:04:13;6.40;;;5.95;;
23099;SDS011;53791;50.696;4.396;2022-09-09T15:06:42;6.62;;;6.12;;
23099;SDS011;53791;50.696;4.396;2022-09-09T15:09:11;6.72;;;6.22;;
23099;SDS011;53791;50.696;4.396;2022-09-09T15:11:39;6.08;;;5.67;;
23099;SDS011;53791;50.696;4.396;2022-09-09T15:14:09;6.60;;;6.10;;
23099;SDS011;53791;50.696;4.396;2022-09-09T15:16:38;9.08;;;6.22;;
23099;SDS011;53791;50.696;4.396;2022-09-09T15:19:09;7.10;;;6.60;;
23099;SDS011;53791;50.696;4.396;2022-09-09T15:21:40;6.78;;;6.28;;
23099;SDS011;53791;50.696;4.396;2022-09-09T15:24:15;6.15;;;5.75;;
23099;SDS011;53791;50.696;4.396;2022-09-09T15:26:41;6.95;;;6.35;;
23099;SDS011;53791;50.696;4.396;2022-09-09T15:29:09;6.08;;;5.67;;
23099;SDS011;53791;50.696;4.396;2022-09-09T15:31:36;6.95;;;5.80;;
23099;SDS011;53791;50.696;4.396;2022-09-09T15:34:05;6.58;;;5.97;;
23099;SDS011;53791;50.696;4.396;2022-09-09T15:36:37;6.72;;;6.12;;
23099;SDS011;53791;50.696;4.396;2022-09-09T15:39:12;7.20;;;6.70;;
23099;SDS011;53791;50.696;4.396;2022-09-09T15:41:39;6.17;;;5.75;;
23099;SDS011;53791;50.696;4.396;2022-09-09T15:44:07;6.92;;;6.33;;
23099;SDS011;53791;50.696;4.396;2022-09-09T15:46:38;6.12;;;5.72;;
23099;SDS011;53791;50.696;4.396;2022-09-09T15:49:10;6.00;;;5.60;;
23099;SDS011;53791;50.696;4.396;2022-09-09T15:51:45;6.10;;;5.60;;
23099;SDS011;53791;50.696;4.396;2022-09-09T15:54:16;6.10;;;5.70;;
23099;SDS011;53791;50.696;4.396;2022-09-09T15:56:46;6.30;;;5.80;;
23099;SDS011;53791;50.696;4.396;2022-09-09T15:59:18;10.00;;;7.65;;
23099;SDS011;53791;50.696;4.396;2022-09-09T16:01:46;6.12;;;5.72;;
23099;SDS011;53791;50.696;4.396;2022-09-09T16:04:15;6.10;;;5.70;;
23099;SDS011;53791;50.696;4.396;2022-09-09T16:06:52;6.50;;;6.00;;
23099;SDS011;53791;50.696;4.396;2022-09-09T16:09:20;6.30;;;5.90;;
23099;SDS011;53791;50.696;4.396;2022-09-09T16:11:49;6.00;;;5.60;;
23099;SDS011;53791;50.696;4.396;2022-09-09T16:14:18;5.75;;;5.35;;
23099;SDS011;53791;50.696;4.396;2022-09-09T16:16:46;6.10;;;5.70;;
23099;SDS011;53791;50.696;4.396;2022-09-09T16:19:15;5.60;;;5.20;;
23099;SDS011;53791;50.696;4.396;2022-09-09T16:21:44;6.58;;;5.80;;
23099;SDS011;53791;50.696;4.396;2022-09-09T16:24:15;6.05;;;5.47;;
23099;SDS011;53791;50.696;4.396;2022-09-09T16:26:47;5.55;;;5.15;;
23099;SDS011;53791;50.696;4.396;2022-09-09T16:29:17;5.62;;;5.22;;
23099;SDS011;53791;50.696;4.396;2022-09-09T16:31:45;5.80;;;5.30;;
23099;SDS011;53791;50.696;4.396;2022-09-09T16:34:13;5.40;;;5.00;;
23099;SDS011;53791;50.696;4.396;2022-09-09T16:36:43;5.40;;;5.00;;